sensor_id;sensor_type;location;lat;lon;timestamp;temperature;humidity
21672;DHT22;10997;52.242;8.168;2023-06-26T00:00:28;20.50;99.90
21672;DHT22;10997;52.242;8.168;2023-06-26T00:05:29;20.60;99.90
21672;DHT22;10997;52.242;8.168;2023-06-26T00:10:30;20.50;99.90
21672;DHT22;10997;52.242;8.168;2023-06-26T00:15:31;20.50;99.90
21672;DHT22;10997;52.242;8.168;2023-06-26T00:20:31;20.50;99.90
21672;DHT22;10997;52.242;8.168;2023-06-26T00:25:34;20.40;99.90
21672;DHT22;10997;52.242;8.168;2023-06-26T00:30:34;20.30;99.90
21672;DHT22;10997;52.242;8.168;2023-06-26T00:35:35;20.20;99.90
21672;DHT22;10997;52.242;8.168;2023-06-26T00:40:36;20.10;99.90
21672;DHT22;10997;52.242;8.168;2023-06-26T00:45:36;20.10;99.90
21672;DHT22;10997;52.242;8.168;2023-06-26T00:50:37;20.00;99.90
21672;DHT22;10997;52.242;8.168;2023-06-26T00:55:38;20.10;99.90
21672;DHT22;10997;52.242;8.168;2023-06-26T01:00:39;20.20;99.90
21672;DHT22;10997;52.242;8.168;2023-06-26T01:05:39;20.20;99.90
21672;DHT22;10997;52.242;8.168;2023-06-26T01:10:40;20.20;99.90
21672;DHT22;10997;52.242;8.168;2023-06-26T01:15:40;20.10;99.90
21672;DHT22;10997;52.242;8.168;2023-06-26T01:20:41;20.00;99.90
21672;DHT22;10997;52.242;8.168;2023-06-26T01:31:10;19.80;99.90
21672;DHT22;10997;52.242;8.168;2023-06-26T01:36:11;19.60;99.90
21672;DHT22;10997;52.242;8.168;2023-06-26T01:41:12;19.60;99.90
21672;DHT22;10997;52.242;8.168;2023-06-26T01:46:27;19.60;99.90
21672;DHT22;10997;52.242;8.168;2023-06-26T01:51:32;19.60;99.90
21672;DHT22;10997;52.242;8.168;2023-06-26T01:56:35;19.50;99.90
21672;DHT22;10997;52.242;8.168;2023-06-26T02:01:39;19.40;99.90
21672;DHT22;10997;52.242;8.168;2023-06-26T02:06:39;19.40;99.90
21672;DHT22;10997;52.242;8.168;2023-06-26T02:11:40;19.30;99.90
21672;DHT22;10997;52.242;8.168;2023-06-26T02:16:41;19.30;99.90
21672;DHT22;10997;52.242;8.168;2023-06-26T02:21:41;19.30;99.90
21672;DHT22;10997;52.242;8.168;2023-06-26T02:26:42;19.30;99.90
21672;DHT22;10997;52.242;8.168;2023-06-26T02:31:42;19.40;99.90
21672;DHT22;10997;52.242;8.168;2023-06-26T02:36:43;19.40;99.90
21672;DHT22;10997;52.242;8.168;2023-06-26T02:41:43;19.50;99.90
21672;DHT22;10997;52.242;8.168;2023-06-26T02:46:44;19.50;99.90
21672;DHT22;10997;52.242;8.168;2023-06-26T02:51:45;19.60;99.90
21672;DHT22;10997;52.242;8.168;2023-06-26T02:56:46;19.70;99.90
21672;DHT22;10997;52.242;8.168;2023-06-26T03:01:46;19.70;99.90
21672;DHT22;10997;52.242;8.168;2023-06-26T03:06:47;19.80;99.90
21672;DHT22;10997;52.242;8.168;2023-06-26T03:11:48;19.70;99.90
21672;DHT22;10997;52.242;8.168;2023-06-26T03:16:48;19.70;99.90
21672;DHT22;10997;52.242;8.168;2023-06-26T03:21:51;19.50;99.90
21672;DHT22;10997;52.242;8.168;2023-06-26T03:26:52;19.40;99.90
21672;DHT22;10997;52.242;8.168;2023-06-26T03:31:52;19.30;99.90
21672;DHT22;10997;52.242;8.168;2023-06-26T03:36:53;19.10;99.90
21672;DHT22;10997;52.242;8.168;2023-06-26T03:41:53;18.90;99.90
21672;DHT22;10997;52.242;8.168;2023-06-26T03:46:55;18.80;99.90
21672;DHT22;10997;52.242;8.168;2023-06-26T03:51:56;18.90;99.90
21672;DHT22;10997;52.242;8.168;2023-06-26T03:56:56;18.80;99.90
21672;DHT22;10997;52.242;8.168;2023-06-26T04:01:57;18.90;99.90
21672;DHT22;10997;52.242;8.168;2023-06-26T04:06:57;19.10;99.90
21672;DHT22;10997;52.242;8.168;2023-06-26T04:11:59;19.50;99.90
21672;DHT22;10997;52.242;8.168;2023-06-26T04:17:00;19.80;99.90
21672;DHT22;10997;52.242;8.168;2023-06-26T04:22:03;20.20;99.90
21672;DHT22;10997;52.242;8.168;2023-06-26T04:27:04;20.60;99.90
21672;DHT22;10997;52.242;8.168;2023-06-26T04:32:06;20.90;99.90
21672;DHT22;10997;52.242;8.168;2023-06-26T04:37:07;21.20;99.90
21672;DHT22;10997;52.242;8.168;2023-06-26T04:42:09;21.50;99.90
21672;DHT22;10997;52.242;8.168;2023-06-26T04:47:12;21.80;99.90
21672;DHT22;10997;52.242;8.168;2023-06-26T04:52:15;22.10;99.90
21672;DHT22;10997;52.242;8.168;2023-06-26T04:57:15;22.20;99.90
21672;DHT22;10997;52.242;8.168;2023-06-26T05:02:18;22.30;99.90
21672;DHT22;10997;52.242;8.168;2023-06-26T05:07:18;22.40;99.90
21672;DHT22;10997;52.242;8.168;2023-06-26T05:12:20;22.50;99.90
21672;DHT22;10997;52.242;8.168;2023-06-26T05:17:20;22.60;99.90
21672;DHT22;10997;52.242;8.168;2023-06-26T05:22:21;22.70;99.90
21672;DHT22;10997;52.242;8.168;2023-06-26T05:27:22;22.80;99.90
21672;DHT22;10997;52.242;8.168;2023-06-26T05:32:23;22.80;99.90
21672;DHT22;10997;52.242;8.168;2023-06-26T05:37:26;22.80;99.90
21672;DHT22;10997;52.242;8.168;2023-06-26T05:42:28;22.90;99.90
21672;DHT22;10997;52.242;8.168;2023-06-26T05:47:28;22.90;99.90
21672;DHT22;10997;52.242;8.168;2023-06-26T05:52:29;23.00;99.90
21672;DHT22;10997;52.242;8.168;2023-06-26T05:57:30;23.10;99.90
21672;DHT22;10997;52.242;8.168;2023-06-26T06:02:31;23.20;99.90
21672;DHT22;10997;52.242;8.168;2023-06-26T06:07:35;23.30;99.90
21672;DHT22;10997;52.242;8.168;2023-06-26T06:12:36;23.40;99.90
21672;DHT22;10997;52.242;8.168;2023-06-26T06:17:36;23.50;99.90
21672;DHT22;10997;52.242;8.168;2023-06-26T06:22:37;23.50;99.90
21672;DHT22;10997;52.242;8.168;2023-06-26T06:27:37;23.60;99.90
21672;DHT22;10997;52.242;8.168;2023-06-26T06:32:38;23.60;99.90
21672;DHT22;10997;52.242;8.168;2023-06-26T06:37:38;23.50;99.90
21672;DHT22;10997;52.242;8.168;2023-06-26T06:42:39;23.40;99.90
21672;DHT22;10997;52.242;8.168;2023-06-26T06:47:40;23.40;99.90
21672;DHT22;10997;52.242;8.168;2023-06-26T06:52:42;23.50;99.90
21672;DHT22;10997;52.242;8.168;2023-06-26T06:57:42;23.50;99.90
21672;DHT22;10997;52.242;8.168;2023-06-26T07:02:44;23.60;99.90
21672;DHT22;10997;52.242;8.168;2023-06-26T07:07:45;23.60;99.90
21672;DHT22;10997;52.242;8.168;2023-06-26T07:12:45;23.60;99.90
21672;DHT22;10997;52.242;8.168;2023-06-26T07:17:48;23.70;99.90
21672;DHT22;10997;52.242;8.168;2023-06-26T07:22:49;23.60;99.90
21672;DHT22;10997;52.242;8.168;2023-06-26T07:27:50;24.00;99.90
21672;DHT22;10997;52.242;8.168;2023-06-26T07:32:51;24.20;99.90
21672;DHT22;10997;52.242;8.168;2023-06-26T07:37:51;24.20;99.90
21672;DHT22;10997;52.242;8.168;2023-06-26T07:42:52;24.10;99.90
21672;DHT22;10997;52.242;8.168;2023-06-26T07:47:54;24.10;99.90
21672;DHT22;10997;52.242;8.168;2023-06-26T07:52:55;23.90;99.90
21672;DHT22;10997;52.242;8.168;2023-06-26T07:57:56;23.40;99.90
21672;DHT22;10997;52.242;8.168;2023-06-26T08:02:56;23.00;99.90
21672;DHT22;10997;52.242;8.168;2023-06-26T08:07:57;22.60;99.90
21672;DHT22;10997;52.242;8.168;2023-06-26T08:12:58;22.70;99.90
21672;DHT22;10997;52.242;8.168;2023-06-26T08:17:58;23.10;99.90
21672;DHT22;10997;52.242;8.168;2023-06-26T08:22:59;23.40;99.90
21672;DHT22;10997;52.242;8.168;2023-06-26T08:28:00;23.50;99.90
21672;DHT22;10997;52.242;8.168;2023-06-26T08:33:00;23.40;99.90
21672;DHT22;10997;52.242;8.168;2023-06-26T08:38:01;23.60;99.90
21672;DHT22;10997;52.242;8.168;2023-06-26T08:43:01;23.70;99.90
21672;DHT22;10997;52.242;8.168;2023-06-26T08:48:07;23.70;99.90
21672;DHT22;10997;52.242;8.168;2023-06-26T08:53:20;24.00;99.90
21672;DHT22;10997;52.242;8.168;2023-06-26T08:58:21;24.00;99.90
21672;DHT22;10997;52.242;8.168;2023-06-26T09:03:22;24.30;99.90
21672;DHT22;10997;52.242;8.168;2023-06-26T09:08:23;24.00;99.90
21672;DHT22;10997;52.242;8.168;2023-06-26T09:13:24;24.00;99.90
21672;DHT22;10997;52.242;8.168;2023-06-26T09:18:24;23.50;99.90
21672;DHT22;10997;52.242;8.168;2023-06-26T09:23:25;23.40;99.90
21672;DHT22;10997;52.242;8.168;2023-06-26T09:28:26;24.10;99.90
21672;DHT22;10997;52.242;8.168;2023-06-26T09:33:27;24.00;99.90
21672;DHT22;10997;52.242;8.168;2023-06-26T09:38:28;23.60;99.90
21672;DHT22;10997;52.242;8.168;2023-06-26T09:43:28;23.50;99.90
21672;DHT22;10997;52.242;8.168;2023-06-26T09:48:29;23.50;99.90
21672;DHT22;10997;52.242;8.168;2023-06-26T09:53:29;23.50;99.90
21672;DHT22;10997;52.242;8.168;2023-06-26T09:58:30;23.50;99.90
21672;DHT22;10997;52.242;8.168;2023-06-26T10:03:31;23.60;99.90
21672;DHT22;10997;52.242;8.168;2023-06-26T10:08:33;24.20;99.90
21672;DHT22;10997;52.242;8.168;2023-06-26T10:13:42;25.00;99.90
21672;DHT22;10997;52.242;8.168;2023-06-26T10:18:46;24.30;99.90
21672;DHT22;10997;52.242;8.168;2023-06-26T10:23:48;23.80;99.90
21672;DHT22;10997;52.242;8.168;2023-06-26T10:28:50;23.70;99.90
21672;DHT22;10997;52.242;8.168;2023-06-26T10:33:53;24.00;99.90
21672;DHT22;10997;52.242;8.168;2023-06-26T10:39:06;23.90;99.90
21672;DHT22;10997;52.242;8.168;2023-06-26T10:44:10;24.30;99.90
21672;DHT22;10997;52.242;8.168;2023-06-26T10:49:12;24.70;99.90
21672;DHT22;10997;52.242;8.168;2023-06-26T10:54:15;25.00;99.90
21672;DHT22;10997;52.242;8.168;2023-06-26T10:59:20;25.20;99.90
21672;DHT22;10997;52.242;8.168;2023-06-26T11:04:35;25.30;99.90
21672;DHT22;10997;52.242;8.168;2023-06-26T11:09:56;25.30;99.90
21672;DHT22;10997;52.242;8.168;2023-06-26T11:14:58;24.80;99.90
21672;DHT22;10997;52.242;8.168;2023-06-26T11:19:58;25.30;99.90
21672;DHT22;10997;52.242;8.168;2023-06-26T11:24:59;25.60;99.90
21672;DHT22;10997;52.242;8.168;2023-06-26T11:30:00;25.30;99.90
21672;DHT22;10997;52.242;8.168;2023-06-26T11:35:01;24.60;99.80
21672;DHT22;10997;52.242;8.168;2023-06-26T11:40:22;24.90;99.90
21672;DHT22;10997;52.242;8.168;2023-06-26T11:45:31;25.40;99.80
21672;DHT22;10997;52.242;8.168;2023-06-26T11:50:32;25.30;99.90
21672;DHT22;10997;52.242;8.168;2023-06-26T11:55:41;24.90;99.90
21672;DHT22;10997;52.242;8.168;2023-06-26T12:00:43;24.90;99.90
21672;DHT22;10997;52.242;8.168;2023-06-26T12:05:44;25.30;99.90
21672;DHT22;10997;52.242;8.168;2023-06-26T12:10:45;25.00;99.30
21672;DHT22;10997;52.242;8.168;2023-06-26T12:15:46;24.90;99.30
21672;DHT22;10997;52.242;8.168;2023-06-26T12:20:46;24.80;99.90
21672;DHT22;10997;52.242;8.168;2023-06-26T12:25:47;24.60;99.90
21672;DHT22;10997;52.242;8.168;2023-06-26T12:31:13;25.00;99.90
21672;DHT22;10997;52.242;8.168;2023-06-26T12:36:14;25.00;99.40
21672;DHT22;10997;52.242;8.168;2023-06-26T12:41:15;25.10;99.10
21672;DHT22;10997;52.242;8.168;2023-06-26T12:46:16;24.70;99.50
21672;DHT22;10997;52.242;8.168;2023-06-26T12:51:17;24.60;99.90
21672;DHT22;10997;52.242;8.168;2023-06-26T12:56:18;24.80;99.90
21672;DHT22;10997;52.242;8.168;2023-06-26T13:01:20;24.90;99.70
21672;DHT22;10997;52.242;8.168;2023-06-26T13:06:20;25.50;99.70
21672;DHT22;10997;52.242;8.168;2023-06-26T13:11:21;24.20;99.90
21672;DHT22;10997;52.242;8.168;2023-06-26T13:16:23;23.90;99.90
21672;DHT22;10997;52.242;8.168;2023-06-26T13:21:23;24.00;99.90
21672;DHT22;10997;52.242;8.168;2023-06-26T13:26:24;24.30;99.90
21672;DHT22;10997;52.242;8.168;2023-06-26T13:31:26;23.60;99.90
21672;DHT22;10997;52.242;8.168;2023-06-26T13:36:27;23.50;99.90
21672;DHT22;10997;52.242;8.168;2023-06-26T13:41:27;23.70;99.90
21672;DHT22;10997;52.242;8.168;2023-06-26T13:46:29;23.80;99.90
21672;DHT22;10997;52.242;8.168;2023-06-26T13:51:29;23.90;99.90
21672;DHT22;10997;52.242;8.168;2023-06-26T13:56:30;23.50;99.00
21672;DHT22;10997;52.242;8.168;2023-06-26T14:01:31;23.30;98.90
21672;DHT22;10997;52.242;8.168;2023-06-26T14:06:31;24.00;98.40
21672;DHT22;10997;52.242;8.168;2023-06-26T14:11:32;24.30;96.00
21672;DHT22;10997;52.242;8.168;2023-06-26T14:16:34;24.50;94.70
21672;DHT22;10997;52.242;8.168;2023-06-26T14:21:34;24.80;93.50
21672;DHT22;10997;52.242;8.168;2023-06-26T14:26:35;24.80;92.80
21672;DHT22;10997;52.242;8.168;2023-06-26T14:31:37;24.20;93.40
21672;DHT22;10997;52.242;8.168;2023-06-26T14:36:37;24.90;93.70
21672;DHT22;10997;52.242;8.168;2023-06-26T14:41:38;24.60;93.20
21672;DHT22;10997;52.242;8.168;2023-06-26T14:46:39;24.10;93.80
21672;DHT22;10997;52.242;8.168;2023-06-26T14:51:39;24.30;93.80
21672;DHT22;10997;52.242;8.168;2023-06-26T14:56:40;24.20;93.30
21672;DHT22;10997;52.242;8.168;2023-06-26T15:01:43;24.20;93.70
21672;DHT22;10997;52.242;8.168;2023-06-26T15:06:44;24.10;94.10
21672;DHT22;10997;52.242;8.168;2023-06-26T15:11:44;23.60;92.80
21672;DHT22;10997;52.242;8.168;2023-06-26T15:16:45;23.30;93.40
21672;DHT22;10997;52.242;8.168;2023-06-26T15:21:46;23.40;93.20
21672;DHT22;10997;52.242;8.168;2023-06-26T15:26:46;23.50;92.60
21672;DHT22;10997;52.242;8.168;2023-06-26T15:31:47;24.00;93.10
21672;DHT22;10997;52.242;8.168;2023-06-26T15:36:48;23.20;93.00
21672;DHT22;10997;52.242;8.168;2023-06-26T15:41:49;23.00;93.50
21672;DHT22;10997;52.242;8.168;2023-06-26T15:46:50;22.80;92.40
21672;DHT22;10997;52.242;8.168;2023-06-26T15:51:50;22.70;93.10
21672;DHT22;10997;52.242;8.168;2023-06-26T15:56:51;22.30;92.50
21672;DHT22;10997;52.242;8.168;2023-06-26T16:01:51;22.40;92.60
21672;DHT22;10997;52.242;8.168;2023-06-26T16:06:52;22.40;92.00
21672;DHT22;10997;52.242;8.168;2023-06-26T16:11:53;22.50;91.50
21672;DHT22;10997;52.242;8.168;2023-06-26T16:16:53;22.30;91.20
21672;DHT22;10997;52.242;8.168;2023-06-26T16:21:54;22.50;92.20
21672;DHT22;10997;52.242;8.168;2023-06-26T16:26:54;22.50;94.50
21672;DHT22;10997;52.242;8.168;2023-06-26T16:31:55;22.80;95.60
21672;DHT22;10997;52.242;8.168;2023-06-26T16:36:55;22.60;95.80
21672;DHT22;10997;52.242;8.168;2023-06-26T16:41:56;22.40;93.10
21672;DHT22;10997;52.242;8.168;2023-06-26T16:46:57;22.40;93.80
21672;DHT22;10997;52.242;8.168;2023-06-26T16:51:58;22.20;94.20
21672;DHT22;10997;52.242;8.168;2023-06-26T16:57:01;21.80;94.50
21672;DHT22;10997;52.242;8.168;2023-06-26T17:02:01;21.70;94.80
21672;DHT22;10997;52.242;8.168;2023-06-26T17:07:02;21.80;94.30
21672;DHT22;10997;52.242;8.168;2023-06-26T17:12:03;21.60;94.70
21672;DHT22;10997;52.242;8.168;2023-06-26T17:17:04;21.70;95.60
21672;DHT22;10997;52.242;8.168;2023-06-26T17:22:05;22.10;95.70
21672;DHT22;10997;52.242;8.168;2023-06-26T17:27:13;22.30;94.20
21672;DHT22;10997;52.242;8.168;2023-06-26T17:32:21;22.00;92.50
21672;DHT22;10997;52.242;8.168;2023-06-26T17:37:22;21.80;93.60
21672;DHT22;10997;52.242;8.168;2023-06-26T17:42:23;21.90;94.10
21672;DHT22;10997;52.242;8.168;2023-06-26T17:47:24;21.90;94.20
21672;DHT22;10997;52.242;8.168;2023-06-26T17:52:24;21.50;94.80
21672;DHT22;10997;52.242;8.168;2023-06-26T17:57:25;21.10;95.60
21672;DHT22;10997;52.242;8.168;2023-06-26T18:02:25;21.40;95.50
21672;DHT22;10997;52.242;8.168;2023-06-26T18:07:26;21.60;95.30
21672;DHT22;10997;52.242;8.168;2023-06-26T18:12:27;21.50;94.00
21672;DHT22;10997;52.242;8.168;2023-06-26T18:17:27;21.20;93.20
21672;DHT22;10997;52.242;8.168;2023-06-26T18:22:28;20.90;92.90
21672;DHT22;10997;52.242;8.168;2023-06-26T18:27:35;20.80;93.30
21672;DHT22;10997;52.242;8.168;2023-06-26T18:32:35;20.90;93.60
21672;DHT22;10997;52.242;8.168;2023-06-26T18:37:36;20.90;94.60
21672;DHT22;10997;52.242;8.168;2023-06-26T18:42:37;21.00;94.90
21672;DHT22;10997;52.242;8.168;2023-06-26T18:47:38;21.00;94.70
21672;DHT22;10997;52.242;8.168;2023-06-26T18:52:39;21.00;95.50
21672;DHT22;10997;52.242;8.168;2023-06-26T18:57:39;21.00;95.80
21672;DHT22;10997;52.242;8.168;2023-06-26T19:02:41;20.90;95.60
21672;DHT22;10997;52.242;8.168;2023-06-26T19:07:41;20.90;95.40
21672;DHT22;10997;52.242;8.168;2023-06-26T19:12:43;20.80;95.20
21672;DHT22;10997;52.242;8.168;2023-06-26T19:17:43;20.60;95.50
21672;DHT22;10997;52.242;8.168;2023-06-26T19:22:44;20.40;95.50
21672;DHT22;10997;52.242;8.168;2023-06-26T19:27:45;19.90;95.90
21672;DHT22;10997;52.242;8.168;2023-06-26T19:32:46;20.00;96.20
21672;DHT22;10997;52.242;8.168;2023-06-26T19:37:47;19.90;96.30
21672;DHT22;10997;52.242;8.168;2023-06-26T19:42:47;19.40;96.70
21672;DHT22;10997;52.242;8.168;2023-06-26T19:47:48;19.20;97.00
21672;DHT22;10997;52.242;8.168;2023-06-26T19:52:49;18.90;97.20
21672;DHT22;10997;52.242;8.168;2023-06-26T19:57:49;18.70;97.50
21672;DHT22;10997;52.242;8.168;2023-06-26T20:02:50;18.60;98.10
21672;DHT22;10997;52.242;8.168;2023-06-26T20:07:51;18.40;98.30
21672;DHT22;10997;52.242;8.168;2023-06-26T20:12:52;18.30;98.70
21672;DHT22;10997;52.242;8.168;2023-06-26T20:17:53;18.20;99.00
21672;DHT22;10997;52.242;8.168;2023-06-26T20:22:54;18.10;99.50
21672;DHT22;10997;52.242;8.168;2023-06-26T20:27:56;18.00;99.90
21672;DHT22;10997;52.242;8.168;2023-06-26T20:32:56;17.90;99.90
21672;DHT22;10997;52.242;8.168;2023-06-26T20:37:57;17.80;99.90
21672;DHT22;10997;52.242;8.168;2023-06-26T20:42:58;17.70;99.90
21672;DHT22;10997;52.242;8.168;2023-06-26T20:47:58;17.70;99.90
21672;DHT22;10997;52.242;8.168;2023-06-26T20:52:59;17.50;99.90
21672;DHT22;10997;52.242;8.168;2023-06-26T20:58:00;17.20;99.90
21672;DHT22;10997;52.242;8.168;2023-06-26T21:03:00;17.00;99.90
21672;DHT22;10997;52.242;8.168;2023-06-26T21:08:01;17.10;99.90
21672;DHT22;10997;52.242;8.168;2023-06-26T21:13:01;17.00;99.90
21672;DHT22;10997;52.242;8.168;2023-06-26T21:18:02;16.90;99.90
21672;DHT22;10997;52.242;8.168;2023-06-26T21:23:04;16.90;99.90
21672;DHT22;10997;52.242;8.168;2023-06-26T21:28:05;16.70;99.90
21672;DHT22;10997;52.242;8.168;2023-06-26T21:33:05;16.60;99.90
21672;DHT22;10997;52.242;8.168;2023-06-26T21:38:06;16.40;99.90
21672;DHT22;10997;52.242;8.168;2023-06-26T21:43:07;16.20;99.90
21672;DHT22;10997;52.242;8.168;2023-06-26T21:48:08;16.20;99.90
21672;DHT22;10997;52.242;8.168;2023-06-26T21:53:08;16.20;99.90
21672;DHT22;10997;52.242;8.168;2023-06-26T21:58:09;16.10;99.90
21672;DHT22;10997;52.242;8.168;2023-06-26T22:03:09;15.90;99.90
21672;DHT22;10997;52.242;8.168;2023-06-26T22:08:12;15.80;99.90
21672;DHT22;10997;52.242;8.168;2023-06-26T22:13:13;15.70;99.90
21672;DHT22;10997;52.242;8.168;2023-06-26T22:18:13;15.60;99.90
21672;DHT22;10997;52.242;8.168;2023-06-26T22:23:14;15.50;99.90
21672;DHT22;10997;52.242;8.168;2023-06-26T22:28:15;15.30;99.90
21672;DHT22;10997;52.242;8.168;2023-06-26T22:33:15;15.20;99.90
21672;DHT22;10997;52.242;8.168;2023-06-26T22:38:16;15.10;99.90
21672;DHT22;10997;52.242;8.168;2023-06-26T22:43:16;14.90;99.90
21672;DHT22;10997;52.242;8.168;2023-06-26T22:48:17;14.90;99.90
21672;DHT22;10997;52.242;8.168;2023-06-26T22:53:18;14.80;99.90
21672;DHT22;10997;52.242;8.168;2023-06-26T22:58:18;14.80;99.90
21672;DHT22;10997;52.242;8.168;2023-06-26T23:03:21;14.70;99.90
21672;DHT22;10997;52.242;8.168;2023-06-26T23:08:21;14.70;99.90
21672;DHT22;10997;52.242;8.168;2023-06-26T23:13:22;14.70;99.90
21672;DHT22;10997;52.242;8.168;2023-06-26T23:18:22;14.70;99.90
21672;DHT22;10997;52.242;8.168;2023-06-26T23:23:23;14.70;99.90
21672;DHT22;10997;52.242;8.168;2023-06-26T23:28:25;14.60;99.90
21672;DHT22;10997;52.242;8.168;2023-06-26T23:33:25;14.60;99.90
21672;DHT22;10997;52.242;8.168;2023-06-26T23:38:29;14.60;99.90
21672;DHT22;10997;52.242;8.168;2023-06-26T23:43:30;14.60;99.90
21672;DHT22;10997;52.242;8.168;2023-06-26T23:48:30;14.70;99.90
21672;DHT22;10997;52.242;8.168;2023-06-26T23:53:31;14.70;99.90
21672;DHT22;10997;52.242;8.168;2023-06-26T23:58:32;14.70;99.90
